Time;durP1;ratioP1;P1;durP2;ratioP2;P2;SDS_P1;SDS_P2;PMS_P1;PMS_P2;Temp;Humidity;BMP_temperature;BMP_pressure;BME280_temperature;BME280_humidity;BME280_pressure;Samples;Min_cycle;Max_cycle;Signal;HPM_P1;HPM_P2
2023/05/14 00:00:55;;;;;;;5.60;3.88;;;;;;;;;;5100112;28;20032;-91
2023/05/14 00:03:22;;;;;;;7.50;4.05;;;;;;;;;;5081818;28;20028;-92
2023/05/14 00:05:48;;;;;;;4.30;3.75;;;;;;;;;;5100346;28;20031;-91
2023/05/14 00:11:18;;;;;;;3.95;3.20;;;;;;;;;;5099584;28;20318;-92
2023/05/14 00:13:44;;;;;;;5.75;3.00;;;;;;;;;;5082128;28;20048;-91
2023/05/14 00:16:10;;;;;;;4.45;3.30;;;;;;;;;;5081885;28;20033;-91
2023/05/14 00:18:36;;;;;;;8.07;3.28;;;;;;;;;;5099791;28;20034;-92
2023/05/14 00:21:36;;;;;;;5.15;2.78;;;;;;;;;;5082004;28;20092;-91
2023/05/14 00:24:02;;;;;;;3.80;2.90;;;;;;;;;;5099783;28;20121;-91
2023/05/14 00:26:28;;;;;;;3.83;2.80;;;;;;;;;;5098677;28;20016;-87
2023/05/14 00:28:54;;;;;;;3.33;2.80;;;;;;;;;;5099602;28;20024;-90
2023/05/14 00:31:20;;;;;;;4.45;2.53;;;;;;;;;;5081690;28;20062;-90
2023/05/14 00:33:46;;;;;;;6.93;2.80;;;;;;;;;;5081744;28;20028;-89
2023/05/14 00:36:36;;;;;;;5.03;3.13;;;;;;;;;;5081661;28;20028;-89
2023/05/14 00:39:02;;;;;;;5.18;2.67;;;;;;;;;;5081500;28;20040;-90
2023/05/14 00:41:28;;;;;;;7.20;2.80;;;;;;;;;;5099705;28;20031;-89
2023/05/14 00:43:54;;;;;;;5.05;2.80;;;;;;;;;;5081446;28;20026;-90
2023/05/14 00:46:21;;;;;;;5.85;3.00;;;;;;;;;;5099513;28;20107;-89
2023/05/14 00:48:47;;;;;;;4.20;2.78;;;;;;;;;;5099377;28;20024;-90
2023/05/14 00:51:13;;;;;;;4.30;2.60;;;;;;;;;;5081296;28;20310;-89
2023/05/14 00:53:39;;;;;;;3.85;2.90;;;;;;;;;;5099374;28;20024;-90
2023/05/14 00:56:07;;;;;;;4.47;2.60;;;;;;;;;;5081314;28;20478;-90
2023/05/14 00:58:33;;;;;;;3.60;2.72;;;;;;;;;;5099536;28;20024;-89
2023/05/14 01:00:59;;;;;;;4.75;2.58;;;;;;;;;;5080399;28;20120;-88
2023/05/14 01:03:25;;;;;;;4.45;2.80;;;;;;;;;;5098828;28;20024;-89
2023/05/14 01:05:54;;;;;;;5.70;2.83;;;;;;;;;;5099170;28;20028;-87
2023/05/14 01:08:51;;;;;;;5.32;2.63;;;;;;;;;;5098707;28;20443;-91
2023/05/14 01:11:17;;;;;;;3.50;2.80;;;;;;;;;;5079747;28;20044;-90
2023/05/14 01:14:01;;;;;;;4.90;2.67;;;;;;;;;;5099022;28;20035;-90
2023/05/14 01:16:29;;;;;;;5.57;3.03;;;;;;;;;;5080954;28;20119;-89
2023/05/14 01:18:56;;;;;;;5.20;3.17;;;;;;;;;;5098608;28;20471;-90
2023/05/14 01:25:03;;;;;;;6.13;3.00;;;;;;;;;;5098718;28;20413;-91
2023/05/14 01:27:38;;;;;;;5.95;3.13;;;;;;;;;;5098420;28;20058;-90
2023/05/14 01:30:19;;;;;;;9.18;3.30;;;;;;;;;;5098597;28;20020;-90
2023/05/14 01:32:47;;;;;;;5.15;2.92;;;;;;;;;;5098766;28;20103;-90
2023/05/14 01:35:13;;;;;;;4.78;2.97;;;;;;;;;;5098169;28;20107;-87
2023/05/14 01:38:03;;;;;;;4.28;3.05;;;;;;;;;;5079597;28;20390;-86
2023/05/14 01:40:29;;;;;;;6.50;2.88;;;;;;;;;;5098219;28;20034;-86
2023/05/14 01:42:56;;;;;;;10.05;3.60;;;;;;;;;;5079824;28;20032;-86
2023/05/14 01:45:22;;;;;;;4.95;3.40;;;;;;;;;;5080453;28;20331;-86
2023/05/14 01:47:48;;;;;;;8.05;3.40;;;;;;;;;;5080208;28;20427;-87
2023/05/14 01:50:14;;;;;;;5.65;3.28;;;;;;;;;;5080140;28;20028;-88
2023/05/14 01:52:59;;;;;;;6.13;3.92;;;;;;;;;;5098030;28;20056;-88
2023/05/14 01:55:25;;;;;;;4.95;3.30;;;;;;;;;;5098061;28;20017;-87
2023/05/14 01:57:51;;;;;;;5.50;3.30;;;;;;;;;;5098225;28;20035;-87
2023/05/14 02:00:17;;;;;;;7.57;3.58;;;;;;;;;;5097870;28;20402;-87
2023/05/14 02:02:44;;;;;;;6.30;3.40;;;;;;;;;;5098254;28;20016;-89
2023/05/14 02:05:10;;;;;;;5.18;3.50;;;;;;;;;;5098140;28;20024;-89
2023/05/14 02:13:57;;;;;;;4.70;3.58;;;;;;;;;;5057949;28;20052;-88
2023/05/14 02:16:23;;;;;;;6.97;4.32;;;;;;;;;;5057423;28;20029;-89
2023/05/14 02:18:49;;;;;;;6.70;3.60;;;;;;;;;;5057698;28;20023;-89
2023/05/14 02:21:15;;;;;;;5.95;3.65;;;;;;;;;;5057204;28;20028;-88
2023/05/14 02:26:45;;;;;;;7.38;4.07;;;;;;;;;;5037746;28;20068;-88
2023/05/14 02:29:11;;;;;;;7.70;3.80;;;;;;;;;;5037702;28;20033;-87
2023/05/14 02:31:37;;;;;;;5.32;4.15;;;;;;;;;;5037733;28;20105;-87
2023/05/14 02:34:05;;;;;;;6.38;3.75;;;;;;;;;;5037789;28;20097;-87
2023/05/14 02:36:32;;;;;;;6.43;4.03;;;;;;;;;;5053015;28;20366;-86
2023/05/14 02:38:59;;;;;;;7.47;4.20;;;;;;;;;;5052705;28;20320;-87
2023/05/14 02:41:26;;;;;;;5.57;3.85;;;;;;;;;;5056421;28;20032;-87
2023/05/14 02:43:52;;;;;;;5.50;3.78;;;;;;;;;;5057646;28;20029;-87
2023/05/14 02:46:18;;;;;;;6.00;3.58;;;;;;;;;;5057478;28;20017;-87
2023/05/14 02:48:44;;;;;;;8.40;4.55;;;;;;;;;;5059167;28;20017;-87
2023/05/14 02:51:11;;;;;;;5.45;3.78;;;;;;;;;;5061400;28;20056;-88
2023/05/14 02:56:41;;;;;;;12.20;4.50;;;;;;;;;;5060956;28;20039;-90
2023/05/14 02:59:07;;;;;;;6.30;4.20;;;;;;;;;;5061326;28;20083;-94
2023/05/14 03:01:33;;;;;;;7.72;4.40;;;;;;;;;;5061161;28;20056;-92
2023/05/14 03:03:59;;;;;;;6.38;4.10;;;;;;;;;;5059822;28;20040;-91
2023/05/14 03:06:26;;;;;;;7.47;3.90;;;;;;;;;;5061035;28;20420;-89
2023/05/14 03:11:56;;;;;;;5.68;4.30;;;;;;;;;;5072263;28;20088;-89
2023/05/14 03:14:22;;;;;;;4.90;4.13;;;;;;;;;;5101063;28;20417;-90
2023/05/14 03:16:48;;;;;;;6.70;4.07;;;;;;;;;;5101306;28;20020;-91
2023/05/14 03:19:14;;;;;;;5.28;3.75;;;;;;;;;;5101215;28;20017;-91
2023/05/14 03:24:58;;;;;;;5.95;3.50;;;;;;;;;;5100643;28;20035;-85
2023/05/14 03:27:24;;;;;;;5.63;3.60;;;;;;;;;;5100914;28;20035;-84
2023/05/14 03:29:50;;;;;;;7.30;3.78;;;;;;;;;;5100164;28;20070;-84
2023/05/14 03:32:17;;;;;;;6.00;4.35;;;;;;;;;;5083018;28;20040;-85
2023/05/14 03:34:43;;;;;;;4.50;3.75;;;;;;;;;;5101084;28;20035;-86
2023/05/14 03:37:09;;;;;;;5.95;3.80;;;;;;;;;;5082426;28;20039;-86
2023/05/14 03:39:36;;;;;;;4.95;3.70;;;;;;;;;;5100527;28;20287;-84
2023/05/14 03:42:02;;;;;;;4.60;3.53;;;;;;;;;;5100447;28;20028;-87
2023/05/14 03:44:28;;;;;;;6.45;4.00;;;;;;;;;;5100509;28;20032;-87
2023/05/14 03:46:54;;;;;;;4.20;3.65;;;;;;;;;;5098330;28;20012;-91
2023/05/14 03:49:20;;;;;;;5.07;3.38;;;;;;;;;;5100478;28;20067;-94
2023/05/14 03:51:46;;;;;;;7.03;3.95;;;;;;;;;;5082606;28;20424;-94
2023/05/14 03:54:12;;;;;;;5.68;3.80;;;;;;;;;;5100261;28;20414;-94
2023/05/14 03:56:39;;;;;;;5.88;3.97;;;;;;;;;;5100371;28;20031;-91
2023/05/14 03:59:05;;;;;;;5.50;3.83;;;;;;;;;;5082193;28;20024;-92
2023/05/14 04:01:31;;;;;;;7.90;4.20;;;;;;;;;;5099367;28;20056;-91
2023/05/14 04:03:57;;;;;;;5.97;3.78;;;;;;;;;;5100453;28;20116;-91
2023/05/14 04:06:23;;;;;;;4.65;3.63;;;;;;;;;;5082034;28;20032;-92
2023/05/14 04:11:53;;;;;;;4.72;3.83;;;;;;;;;;5100142;28;20051;-93
2023/05/14 04:14:19;;;;;;;5.40;3.90;;;;;;;;;;5100198;28;20024;-94
2023/05/14 04:16:45;;;;;;;7.38;3.80;;;;;;;;;;5099809;28;20035;-94
2023/05/14 04:19:11;;;;;;;5.65;3.70;;;;;;;;;;5085951;28;20032;-96
2023/05/14 04:21:38;;;;;;;8.75;3.75;;;;;;;;;;5103445;28;20024;-95
2023/05/14 04:27:22;;;;;;;5.47;4.28;;;;;;;;;;5100264;28;20039;-94
2023/05/14 04:29:48;;;;;;;4.50;3.72;;;;;;;;;;5081549;28;20040;-95
2023/05/14 04:32:14;;;;;;;7.70;4.03;;;;;;;;;;5082012;28;20036;-96
2023/05/14 04:34:41;;;;;;;5.15;3.97;;;;;;;;;;5099916;28;20096;-96
2023/05/14 04:40:11;;;;;;;4.43;3.72;;;;;;;;;;5099717;28;20384;-94
2023/05/14 04:42:37;;;;;;;4.28;3.65;;;;;;;;;;5099615;28;20140;-91
2023/05/14 04:45:04;;;;;;;6.57;4.20;;;;;;;;;;5081466;28;20028;-92
2023/05/14 04:47:30;;;;;;;5.25;3.78;;;;;;;;;;5099273;28;20475;-91
2023/05/14 04:49:56;;;;;;;5.78;3.80;;;;;;;;;;5099340;28;20031;-91
2023/05/14 04:52:42;;;;;;;7.10;4.00;;;;;;;;;;5098929;28;20032;-90
2023/05/14 04:55:09;;;;;;;9.07;4.05;;;;;;;;;;5081334;28;20122;-90
2023/05/14 04:57:35;;;;;;;5.57;4.05;;;;;;;;;;5099378;28;20048;-91
2023/05/14 05:00:01;;;;;;;6.07;3.88;;;;;;;;;;5081313;28;20051;-90
2023/05/14 05:02:27;;;;;;;7.82;4.28;;;;;;;;;;5099206;28;20020;-91
2023/05/14 05:04:53;;;;;;;4.95;3.78;;;;;;;;;;5081234;28;20035;-91
2023/05/14 05:10:23;;;;;;;10.88;4.05;;;;;;;;;;5099151;28;20030;-91
2023/05/14 05:12:49;;;;;;;6.65;3.90;;;;;;;;;;5098327;28;20051;-92
2023/05/14 05:15:15;;;;;;;6.35;4.68;;;;;;;;;;5080908;28;20024;-88
2023/05/14 05:17:41;;;;;;;9.55;5.55;;;;;;;;;;5099170;28;20036;-89
2023/05/14 05:20:08;;;;;;;7.15;4.13;;;;;;;;;;5098340;28;20299;-88
2023/05/14 05:32:44;;;;;;;8.27;4.80;;;;;;;;;;5098590;28;20436;-88
2023/05/14 05:35:10;;;;;;;9.05;5.03;;;;;;;;;;5098760;28;20035;-91
2023/05/14 05:37:36;;;;;;;8.23;5.25;;;;;;;;;;5080413;28;20127;-92
2023/05/14 05:40:03;;;;;;;7.18;5.57;;;;;;;;;;5098286;28;20071;-92
2023/05/14 05:42:29;;;;;;;6.72;4.78;;;;;;;;;;5098662;28;20310;-92
2023/05/14 05:44:55;;;;;;;8.45;5.32;;;;;;;;;;5098578;28;20024;-91
2023/05/14 05:47:21;;;;;;;8.52;5.28;;;;;;;;;;5098150;28;20441;-91
2023/05/14 05:49:47;;;;;;;7.55;5.53;;;;;;;;;;5098174;28;20024;-91
2023/05/14 05:52:13;;;;;;;7.93;6.03;;;;;;;;;;5098343;28;20028;-89
2023/05/14 05:54:39;;;;;;;9.68;6.32;;;;;;;;;;5098139;28;20028;-89
2023/05/14 05:57:05;;;;;;;9.57;5.78;;;;;;;;;;5080187;28;20091;-88
2023/05/14 05:59:31;;;;;;;7.78;5.70;;;;;;;;;;5097838;28;20040;-89
2023/05/14 06:01:57;;;;;;;9.50;5.35;;;;;;;;;;5097898;28;20020;-89
2023/05/14 06:04:23;;;;;;;7.18;5.35;;;;;;;;;;5098152;28;20364;-88
2023/05/14 06:06:49;;;;;;;8.27;4.97;;;;;;;;;;5079870;28;20425;-89
2023/05/14 06:09:34;;;;;;;6.32;5.00;;;;;;;;;;5098234;28;20024;-88
2023/05/14 06:12:00;;;;;;;6.85;5.30;;;;;;;;;;5079994;28;20063;-89
2023/05/14 06:14:26;;;;;;;8.35;5.10;;;;;;;;;;5080038;28;20421;-89
2023/05/14 06:16:52;;;;;;;6.82;4.68;;;;;;;;;;5098107;28;20028;-88
2023/05/14 06:19:18;;;;;;;8.68;6.15;;;;;;;;;;5079737;28;20111;-92
2023/05/14 06:21:44;;;;;;;7.70;5.63;;;;;;;;;;5097231;28;20024;-91
2023/05/14 06:27:14;;;;;;;6.28;4.95;;;;;;;;;;5089550;28;20140;-90
2023/05/14 06:29:40;;;;;;;7.95;5.55;;;;;;;;;;5097420;28;20078;-90
2023/05/14 06:32:07;;;;;;;5.55;4.45;;;;;;;;;;5078982;28;20335;-92
2023/05/14 06:34:33;;;;;;;6.53;4.50;;;;;;;;;;5097305;28;20073;-92
2023/05/14 06:37:01;;;;;;;8.27;4.63;;;;;;;;;;5097578;28;20036;-92
2023/05/14 06:39:27;;;;;;;5.03;4.53;;;;;;;;;;5079765;28;20086;-94
2023/05/14 06:41:53;;;;;;;12.85;6.43;;;;;;;;;;5098413;28;20024;-88
2023/05/14 06:44:19;;;;;;;29.00;25.15;;;;;;;;;;5079605;28;20065;-92
2023/05/14 06:46:45;;;;;;;8.57;6.53;;;;;;;;;;5097264;28;20020;-90
2023/05/14 06:49:11;;;;;;;6.95;5.68;;;;;;;;;;5097372;28;20043;-92
2023/05/14 06:51:37;;;;;;;32.90;21.70;;;;;;;;;;5097293;28;20032;-89
2023/05/14 06:57:07;;;;;;;12.95;8.68;;;;;;;;;;5097831;28;20521;-90
2023/05/14 06:59:33;;;;;;;12.70;8.05;;;;;;;;;;5079786;28;20032;-89
2023/05/14 07:02:00;;;;;;;28.42;13.32;;;;;;;;;;5079659;28;20024;-90
2023/05/14 07:04:26;;;;;;;27.85;11.65;;;;;;;;;;5097392;28;20038;-92
2023/05/14 07:06:52;;;;;;;17.45;8.07;;;;;;;;;;5079466;28;20032;-90
2023/05/14 07:09:18;;;;;;;17.63;7.20;;;;;;;;;;5079103;28;20426;-90
2023/05/14 07:11:44;;;;;;;15.60;6.57;;;;;;;;;;5097039;28;20055;-91
2023/05/14 07:14:10;;;;;;;10.00;5.28;;;;;;;;;;5097251;28;20107;-93
2023/05/14 07:16:36;;;;;;;19.17;7.60;;;;;;;;;;5098017;28;20039;-87
2023/05/14 07:19:02;;;;;;;9.75;5.35;;;;;;;;;;5097491;28;20020;-86
2023/05/14 07:21:28;;;;;;;14.98;5.95;;;;;;;;;;5079376;28;20055;-87
2023/05/14 07:23:55;;;;;;;12.50;5.70;;;;;;;;;;5097367;28;20065;-87
2023/05/14 07:26:23;;;;;;;9.98;5.05;;;;;;;;;;5097073;28;20420;-88
2023/05/14 07:28:49;;;;;;;11.10;5.80;;;;;;;;;;5097102;28;20433;-88
2023/05/14 07:31:15;;;;;;;7.82;5.22;;;;;;;;;;5079024;28;20040;-87
2023/05/14 07:33:41;;;;;;;11.93;5.90;;;;;;;;;;5079361;28;20031;-89
2023/05/14 07:36:07;;;;;;;14.55;7.22;;;;;;;;;;5081493;28;20057;-90
2023/05/14 07:38:33;;;;;;;11.85;6.35;;;;;;;;;;5076199;28;20082;-89
2023/05/14 07:40:59;;;;;;;15.30;6.50;;;;;;;;;;5113003;28;20108;-92
2023/05/14 07:43:25;;;;;;;10.40;6.30;;;;;;;;;;5100408;28;20027;-92
2023/05/14 07:45:52;;;;;;;16.58;6.50;;;;;;;;;;5100382;28;20479;-92
2023/05/14 07:48:18;;;;;;;11.57;5.47;;;;;;;;;;5100432;28;20050;-92
2023/05/14 07:50:44;;;;;;;9.02;5.80;;;;;;;;;;5082768;28;20028;-88
2023/05/14 07:53:10;;;;;;;11.02;5.80;;;;;;;;;;5100224;28;20107;-89
2023/05/14 07:55:36;;;;;;;8.32;5.15;;;;;;;;;;5082154;28;20451;-93
2023/05/14 07:58:02;;;;;;;8.82;5.80;;;;;;;;;;5082109;28;20028;-90
2023/05/14 08:00:28;;;;;;;10.48;5.45;;;;;;;;;;5081217;28;20032;-90
2023/05/14 08:02:55;;;;;;;9.57;6.40;;;;;;;;;;5099933;28;20020;-90
2023/05/14 08:05:21;;;;;;;12.82;7.15;;;;;;;;;;5100197;28;20028;-89
2023/05/14 08:07:47;;;;;;;10.15;6.72;;;;;;;;;;5100289;28;20032;-90
2023/05/14 08:10:13;;;;;;;12.35;6.68;;;;;;;;;;5082268;28;20047;-89
2023/05/14 08:12:39;;;;;;;11.38;6.45;;;;;;;;;;5099702;28;20134;-90
2023/05/14 08:15:06;;;;;;;8.48;5.68;;;;;;;;;;5099983;28;20361;-91
2023/05/14 08:17:32;;;;;;;11.52;6.15;;;;;;;;;;5104394;28;20024;-91
2023/05/14 08:19:58;;;;;;;6.70;5.65;;;;;;;;;;5120506;28;20023;-94
2023/05/14 08:22:25;;;;;;;7.93;6.28;;;;;;;;;;5109327;28;20115;-93
2023/05/14 08:24:51;;;;;;;8.00;5.43;;;;;;;;;;5100204;28;20035;-93
2023/05/14 08:27:17;;;;;;;9.32;6.30;;;;;;;;;;5082051;28;20039;-90
2023/05/14 08:29:43;;;;;;;9.35;5.95;;;;;;;;;;5099150;28;20024;-88
2023/05/14 08:32:09;;;;;;;8.55;6.05;;;;;;;;;;5099700;28;20098;-87
2023/05/14 08:34:35;;;;;;;10.05;6.70;;;;;;;;;;5099719;28;20020;-87
2023/05/14 08:37:01;;;;;;;7.20;5.50;;;;;;;;;;5081393;28;20080;-87
2023/05/14 08:39:27;;;;;;;7.78;5.93;;;;;;;;;;5099668;28;20032;-87
2023/05/14 08:41:55;;;;;;;7.15;5.63;;;;;;;;;;5099534;28;20028;-87
2023/05/14 08:44:29;;;;;;;9.27;5.63;;;;;;;;;;5099503;28;20018;-87
2023/05/14 08:46:56;;;;;;;7.72;5.82;;;;;;;;;;5077704;28;20025;-91
2023/05/14 08:49:46;;;;;;;9.25;5.93;;;;;;;;;;5080650;28;20028;-93
2023/05/14 08:52:12;;;;;;;7.72;6.43;;;;;;;;;;5081320;28;20027;-90
2023/05/14 08:57:41;;;;;;;10.48;6.82;;;;;;;;;;5099144;28;20035;-90
2023/05/14 09:00:10;;;;;;;8.38;6.63;;;;;;;;;;5080568;28;20032;-92
2023/05/14 09:02:36;;;;;;;11.20;7.80;;;;;;;;;;5081207;28;20433;-91
2023/05/14 09:05:03;;;;;;;7.82;6.55;;;;;;;;;;5082331;28;20161;-93
2023/05/14 09:07:30;;;;;;;8.02;6.35;;;;;;;;;;5084807;28;20425;-95
2023/05/14 09:13:00;;;;;;;7.43;6.60;;;;;;;;;;5098629;28;20515;-93
2023/05/14 09:15:27;;;;;;;9.38;6.57;;;;;;;;;;5098579;28;20045;-92
2023/05/14 09:17:53;;;;;;;12.05;6.53;;;;;;;;;;5098824;28;20152;-92
2023/05/14 09:20:19;;;;;;;11.30;6.43;;;;;;;;;;5098530;28;20032;-93
2023/05/14 09:22:45;;;;;;;9.02;6.93;;;;;;;;;;5098898;28;20103;-93
2023/05/14 09:25:12;;;;;;;8.43;6.38;;;;;;;;;;5080538;28;20024;-92
2023/05/14 09:27:38;;;;;;;10.45;6.82;;;;;;;;;;5098576;28;20024;-93
2023/05/14 09:30:05;;;;;;;11.13;7.38;;;;;;;;;;5080704;28;20028;-93
2023/05/14 09:32:57;;;;;;;10.93;7.50;;;;;;;;;;5098361;28;20036;-92
2023/05/14 09:35:23;;;;;;;;;;;;;;;;;;5085909;28;20052;-87
2023/05/14 09:38:40;;;;;;;10.73;8.15;;;;;;;;;;5080604;28;19912;-86
2023/05/14 09:41:06;;;;;;;8.98;7.10;;;;;;;;;;5113753;28;20123;-93
2023/05/14 09:43:32;;;;;;;11.20;6.50;;;;;;;;;;5095860;28;20039;-93
2023/05/14 09:45:58;;;;;;;8.93;5.82;;;;;;;;;;5094069;28;20020;-91
2023/05/14 09:48:25;;;;;;;10.45;6.53;;;;;;;;;;5078310;28;20035;-89
2023/05/14 09:50:51;;;;;;;9.32;6.72;;;;;;;;;;5094179;28;20024;-91
2023/05/14 09:53:17;;;;;;;11.35;6.80;;;;;;;;;;5081328;28;20024;-91
2023/05/14 09:55:43;;;;;;;9.70;6.22;;;;;;;;;;5097721;28;20322;-92
2023/05/14 09:58:09;;;;;;;10.32;7.10;;;;;;;;;;5098009;28;20080;-91
2023/05/14 10:00:36;;;;;;;10.13;6.85;;;;;;;;;;5098264;28;20050;-94
2023/05/14 10:03:05;;;;;;;14.98;8.18;;;;;;;;;;5099067;28;20024;-95
2023/05/14 10:05:41;;;;;;;7.63;6.10;;;;;;;;;;5080181;28;20020;-95
2023/05/14 10:11:25;;;;;;;11.02;8.55;;;;;;;;;;5098152;28;20039;-92
2023/05/14 10:14:03;;;;;;;8.63;6.75;;;;;;;;;;5097988;28;20057;-94
2023/05/14 10:16:41;;;;;;;8.75;6.88;;;;;;;;;;5060236;28;20021;-94
2023/05/14 10:19:11;;;;;;;8.50;6.53;;;;;;;;;;5069620;28;20099;-95
2023/05/14 10:21:38;;;;;;;9.82;6.50;;;;;;;;;;5077506;28;20032;-94
2023/05/14 10:24:05;;;;;;;9.02;6.07;;;;;;;;;;5086276;28;20470;-96
2023/05/14 10:26:32;;;;;;;8.57;6.40;;;;;;;;;;5086882;28;20086;-91
2023/05/14 10:28:58;;;;;;;13.10;7.28;;;;;;;;;;5076246;28;20047;-95
2023/05/14 10:31:43;;;;;;;8.55;6.10;;;;;;;;;;5098307;28;20074;-92
2023/05/14 10:34:29;;;;;;;7.75;5.22;;;;;;;;;;5100095;28;20031;-91
2023/05/14 10:36:58;;;;;;;8.10;5.53;;;;;;;;;;5097403;28;20310;-91
2023/05/14 10:39:39;;;;;;;9.73;5.60;;;;;;;;;;5097276;28;20350;-91
2023/05/14 10:42:05;;;;;;;9.52;6.00;;;;;;;;;;5097487;28;20024;-90
2023/05/14 10:44:32;;;;;;;10.90;6.10;;;;;;;;;;5078988;28;20059;-91
2023/05/14 10:46:58;;;;;;;10.13;6.57;;;;;;;;;;5097482;28;20402;-92
2023/05/14 10:49:24;;;;;;;9.13;6.18;;;;;;;;;;5097671;28;20027;-90
2023/05/14 10:51:52;;;;;;;9.48;6.20;;;;;;;;;;5079743;28;20031;-91
2023/05/14 10:54:18;;;;;;;8.35;5.90;;;;;;;;;;5097054;28;20020;-91
2023/05/14 10:56:47;;;;;;;7.60;6.13;;;;;;;;;;5079848;28;20140;-92
2023/05/14 10:59:16;;;;;;;8.15;5.93;;;;;;;;;;5097324;28;20469;-91
2023/05/14 11:01:42;;;;;;;6.65;5.50;;;;;;;;;;5097581;28;20055;-92
2023/05/14 11:04:08;;;;;;;7.38;5.70;;;;;;;;;;5077809;28;20027;-94
2023/05/14 11:06:35;;;;;;;6.55;5.75;;;;;;;;;;5078824;28;20039;-94
2023/05/14 11:12:06;;;;;;;8.52;6.15;;;;;;;;;;5081097;28;20856;-93
2023/05/14 11:14:32;;;;;;;9.32;6.60;;;;;;;;;;5063393;28;20064;-93
2023/05/14 11:16:58;;;;;;;11.57;7.15;;;;;;;;;;5080875;28;20027;-92
2023/05/14 11:19:24;;;;;;;11.50;7.45;;;;;;;;;;5062692;28;20406;-93
2023/05/14 11:21:50;;;;;;;9.70;6.50;;;;;;;;;;5063996;28;20422;-93
2023/05/14 11:24:16;;;;;;;8.23;6.50;;;;;;;;;;5083040;28;20407;-93
2023/05/14 11:26:42;;;;;;;8.32;6.85;;;;;;;;;;5083426;28;20028;-93
2023/05/14 11:29:10;;;;;;;11.88;7.70;;;;;;;;;;5082894;28;20504;-93
2023/05/14 11:31:59;;;;;;;11.10;7.85;;;;;;;;;;5101255;28;20107;-95
2023/05/14 11:34:25;;;;;;;10.30;7.68;;;;;;;;;;5082650;28;20055;-92
2023/05/14 11:36:51;;;;;;;9.70;7.60;;;;;;;;;;5100755;28;20119;-92
2023/05/14 11:39:18;;;;;;;11.40;6.70;;;;;;;;;;5100851;28;20051;-93
2023/05/14 11:41:44;;;;;;;11.95;7.20;;;;;;;;;;5100579;28;20035;-92
2023/05/14 11:44:11;;;;;;;11.13;7.47;;;;;;;;;;5100401;28;20096;-91
2023/05/14 11:46:37;;;;;;;11.32;7.22;;;;;;;;;;5082803;28;20031;-94
2023/05/14 11:49:06;;;;;;;14.00;7.03;;;;;;;;;;5082441;28;20064;-87
2023/05/14 11:51:33;;;;;;;7.85;6.38;;;;;;;;;;5099920;28;20016;-88
2023/05/14 11:54:00;;;;;;;15.50;6.22;;;;;;;;;;5100430;28;20032;-88
2023/05/14 11:56:26;;;;;;;11.43;6.60;;;;;;;;;;5100599;28;20084;-93
2023/05/14 11:58:57;;;;;;;11.43;6.95;;;;;;;;;;5100070;28;20028;-92
2023/05/14 12:01:23;;;;;;;12.97;8.53;;;;;;;;;;5082410;28;20024;-92
2023/05/14 12:03:49;;;;;;;18.27;9.52;;;;;;;;;;5100326;28;20027;-93
2023/05/14 12:06:15;;;;;;;14.23;8.23;;;;;;;;;;5100098;28;20020;-91
2023/05/14 12:11:46;;;;;;;15.35;9.05;;;;;;;;;;5100200;28;20067;-94
2023/05/14 12:14:22;;;;;;;17.15;8.68;;;;;;;;;;5100068;28;20031;-92
2023/05/14 12:16:48;;;;;;;13.35;8.13;;;;;;;;;;5081831;28;20035;-92
2023/05/14 12:19:15;;;;;;;10.52;7.90;;;;;;;;;;5081814;28;20528;-93
2023/05/14 12:21:45;;;;;;;9.55;7.03;;;;;;;;;;5098533;28;20044;-92
2023/05/14 12:27:15;;;;;;;8.18;6.00;;;;;;;;;;5099735;28;20034;-93
2023/05/14 12:29:42;;;;;;;11.40;6.63;;;;;;;;;;5099689;28;20021;-92
2023/05/14 12:32:09;;;;;;;12.88;7.32;;;;;;;;;;5099207;28;20035;-92
2023/05/14 12:34:36;;;;;;;12.38;7.22;;;;;;;;;;5099721;28;20020;-88
2023/05/14 12:37:03;;;;;;;9.32;6.80;;;;;;;;;;5083833;28;20055;-91
2023/05/14 12:39:30;;;;;;;12.25;7.15;;;;;;;;;;5098944;28;20020;-91
2023/05/14 12:41:56;;;;;;;9.52;7.43;;;;;;;;;;5081191;28;20020;-89
2023/05/14 12:44:22;;;;;;;12.25;7.72;;;;;;;;;;5099417;28;20027;-92
2023/05/14 12:46:49;;;;;;;17.77;9.60;;;;;;;;;;5099416;28;20063;-91
2023/05/14 12:49:15;;;;;;;17.65;10.40;;;;;;;;;;5081343;28;20035;-90
2023/05/14 12:51:41;;;;;;;14.25;8.38;;;;;;;;;;5099615;28;20455;-91
2023/05/14 12:54:07;;;;;;;13.95;8.75;;;;;;;;;;5081087;28;20043;-92
2023/05/14 12:56:33;;;;;;;9.73;7.18;;;;;;;;;;5081417;28;20034;-90
2023/05/14 12:58:59;;;;;;;12.25;8.52;;;;;;;;;;5099147;28;20432;-90
2023/05/14 13:01:25;;;;;;;9.60;7.72;;;;;;;;;;5098668;28;20150;-92
2023/05/14 13:03:51;;;;;;;11.88;7.90;;;;;;;;;;5082934;28;20035;-93
2023/05/14 13:06:17;;;;;;;16.42;8.40;;;;;;;;;;5099361;28;20036;-92
2023/05/14 13:08:43;;;;;;;11.38;8.38;;;;;;;;;;5098939;28;20028;-92
2023/05/14 13:11:10;;;;;;;13.57;9.35;;;;;;;;;;5098720;28;20032;-92
2023/05/14 13:13:36;;;;;;;9.82;7.82;;;;;;;;;;5098728;28;20036;-94
2023/05/14 13:16:02;;;;;;;12.93;8.20;;;;;;;;;;5098729;28;20438;-92
2023/05/14 13:18:28;;;;;;;8.82;6.70;;;;;;;;;;5099018;28;20027;-92
2023/05/14 13:20:54;;;;;;;13.23;6.78;;;;;;;;;;5080896;28;20063;-92
2023/05/14 13:23:20;;;;;;;11.73;6.88;;;;;;;;;;5080720;28;20024;-91
2023/05/14 13:28:50;;;;;;;7.65;6.35;;;;;;;;;;5098893;28;20310;-93
2023/05/14 13:31:16;;;;;;;8.88;5.70;;;;;;;;;;5098199;28;20016;-91
2023/05/14 13:33:43;;;;;;;9.82;4.88;;;;;;;;;;5098357;28;20032;-92
2023/05/14 13:36:10;;;;;;;7.28;4.78;;;;;;;;;;5080513;28;20054;-91
2023/05/14 13:39:10;;;;;;;6.45;5.57;;;;;;;;;;5098306;28;20030;-91
2023/05/14 13:41:37;;;;;;;8.45;5.60;;;;;;;;;;5098297;28;20024;-92
2023/05/14 13:44:03;;;;;;;9.20;5.95;;;;;;;;;;5080694;28;20070;-91
2023/05/14 13:46:29;;;;;;;10.82;5.20;;;;;;;;;;5098411;28;20055;-92
2023/05/14 13:48:55;;;;;;;7.97;5.38;;;;;;;;;;5098228;28;20032;-91
2023/05/14 13:51:22;;;;;;;9.02;5.10;;;;;;;;;;5080334;28;20028;-92
2023/05/14 13:56:52;;;;;;;9.77;5.28;;;;;;;;;;5098447;28;20035;-89
2023/05/14 13:59:19;;;;;;;8.68;4.90;;;;;;;;;;5080656;28;20023;-90
2023/05/14 14:01:46;;;;;;;8.07;5.50;;;;;;;;;;5080102;28;20027;-90
2023/05/14 14:04:15;;;;;;;10.57;6.20;;;;;;;;;;5080025;28;20111;-91
2023/05/14 14:06:41;;;;;;;7.90;6.22;;;;;;;;;;5080131;28;20027;-90
2023/05/14 14:09:07;;;;;;;10.88;7.03;;;;;;;;;;5097956;28;20028;-90
2023/05/14 14:11:35;;;;;;;9.57;7.95;;;;;;;;;;5097620;28;20055;-90
2023/05/14 14:14:01;;;;;;;9.40;6.93;;;;;;;;;;5079895;28;20028;-91
2023/05/14 14:16:27;;;;;;;11.50;6.53;;;;;;;;;;5097904;28;20073;-91
2023/05/14 14:18:53;;;;;;;12.38;6.50;;;;;;;;;;5097742;28;20023;-91
2023/05/14 14:21:19;;;;;;;9.65;5.78;;;;;;;;;;5080006;28;20330;-91
2023/05/14 14:23:46;;;;;;;11.90;6.35;;;;;;;;;;5097454;28;20016;-90
2023/05/14 14:26:12;;;;;;;10.10;6.25;;;;;;;;;;5097723;28;20032;-90
2023/05/14 14:28:39;;;;;;;11.13;6.30;;;;;;;;;;5097608;28;20052;-90
2023/05/14 14:31:05;;;;;;;8.45;6.45;;;;;;;;;;5098013;28;20095;-90
2023/05/14 14:33:31;;;;;;;10.25;6.47;;;;;;;;;;5097647;28;20028;-90
2023/05/14 14:35:57;;;;;;;10.23;7.57;;;;;;;;;;5079816;28;20061;-90
2023/05/14 14:38:24;;;;;;;11.90;7.53;;;;;;;;;;5079764;28;20032;-90
2023/05/14 14:43:53;;;;;;;19.08;8.25;;;;;;;;;;5098075;28;20032;-89
2023/05/14 14:46:20;;;;;;;14.65;8.35;;;;;;;;;;5083749;28;20032;-92
2023/05/14 14:48:46;;;;;;;11.45;7.88;;;;;;;;;;5102014;28;20031;-90
2023/05/14 14:51:12;;;;;;;13.40;7.45;;;;;;;;;;5083962;28;20330;-90
2023/05/14 14:53:39;;;;;;;14.55;7.78;;;;;;;;;;5101774;28;20028;-92
2023/05/14 14:56:24;;;;;;;13.73;8.05;;;;;;;;;;5083445;28;20024;-92
2023/05/14 14:58:50;;;;;;;14.00;9.18;;;;;;;;;;5083629;28;20028;-89
2023/05/14 15:01:16;;;;;;;12.77;8.00;;;;;;;;;;5101343;28;20024;-88
2023/05/14 15:03:44;;;;;;;14.85;8.73;;;;;;;;;;5096113;28;20056;-88
2023/05/14 15:06:11;;;;;;;8.40;7.35;;;;;;;;;;5101336;28;20030;-89
2023/05/14 15:08:37;;;;;;;8.63;7.35;;;;;;;;;;5101265;28;20380;-89
2023/05/14 15:11:05;;;;;;;12.57;7.70;;;;;;;;;;5101151;28;20024;-90
2023/05/14 15:13:31;;;;;;;13.85;8.32;;;;;;;;;;5101068;28;20044;-90
2023/05/14 15:15:57;;;;;;;13.55;7.80;;;;;;;;;;5097460;28;20028;-90
2023/05/14 15:18:23;;;;;;;10.13;7.80;;;;;;;;;;5092870;28;20034;-89
2023/05/14 15:20:49;;;;;;;12.48;8.70;;;;;;;;;;5101141;28;20052;-90
2023/05/14 15:23:15;;;;;;;11.75;7.78;;;;;;;;;;5100847;28;20016;-90
2023/05/14 15:32:07;;;;;;;12.55;8.95;;;;;;;;;;5101027;28;20074;-93
2023/05/14 15:34:33;;;;;;;10.30;8.40;;;;;;;;;;5084235;28;20028;-91
2023/05/14 15:36:59;;;;;;;19.35;8.40;;;;;;;;;;5101390;28;20065;-93
2023/05/14 15:39:44;;;;;;;12.25;8.18;;;;;;;;;;5086749;28;20035;-94
2023/05/14 15:42:10;;;;;;;11.57;7.68;;;;;;;;;;5103394;28;20425;-92
2023/05/14 15:44:36;;;;;;;9.98;8.10;;;;;;;;;;5082842;28;20029;-90
2023/05/14 15:47:02;;;;;;;14.10;7.90;;;;;;;;;;5100481;28;20022;-88
2023/05/14 15:49:28;;;;;;;12.82;8.40;;;;;;;;;;5082499;28;20047;-88
2023/05/14 15:51:54;;;;;;;11.75;7.65;;;;;;;;;;5081945;28;20067;-88
2023/05/14 15:57:38;;;;;;;10.85;8.20;;;;;;;;;;5100026;28;20031;-89
2023/05/14 16:00:09;;;;;;;12.90;9.10;;;;;;;;;;5082149;28;20024;-89
2023/05/14 16:02:35;;;;;;;11.68;8.35;;;;;;;;;;5100208;28;20078;-88
2023/05/14 16:05:01;;;;;;;11.88;8.18;;;;;;;;;;5100220;28;20063;-89
2023/05/14 16:07:27;;;;;;;11.20;7.85;;;;;;;;;;5082129;28;20111;-87
2023/05/14 16:12:57;;;;;;;10.93;7.93;;;;;;;;;;5086366;28;20373;-87
2023/05/14 16:15:23;;;;;;;13.18;8.68;;;;;;;;;;5100059;28;20024;-92